Terminal Aerodrome Forecast
Issued by NWS

Home | Current Version | Previous Version | Text Only | Print | Product List | Glossary On
Versions: 1 2 3 4 5 6 7 8 9 10 11 12 13 14 15 16 17
000
FTUS41 KCAR 281120
TAFPQI
TAF
KPQI 281120Z 2812/2912 22009KT P6SM SCT200
     FM281400 23010KT P6SM SCT040
     FM281600 23010G17KT 5SM -SHRA VCTS BKN040CB
     FM282200 31009KT P6SM BKN040
     FM290000 34008KT P6SM BKN045
     FM290300 34007KT P6SM SCT250
      AMD LTD TO CLD VIS AND WIND=

USA.gov is the U.S. government's official web portal to all federal, state and local government web resources and services.